Weather at Setermoen Airstrip

Public forecast

Using degrees Celsius for public forecast. Weather courtesy of forecast.io.

Closest aviation weather report (METAR) to Setermoen Airstrip

Report is more than 6 hours old.

Closest report is Bardufoss Airport, 12.7 nm (23.5 km) NNE.

2022/11/14 15:20 (retrieved 2 years ago)

ENDU 141520Z 25005KT 9999 BCFG FEW001 SCT015 BKN025 02/02 Q1022 NOSIG RMK WIND 1100FT 30008KT WIND 2200FT 33011KT

Closest aviation forecast (TAF) to Setermoen Airstrip

Forecast is more than 12 hours old.

Closest forecast is Bardufoss Airport, 12.7 nm (23.5 km) NNE.

2023/02/22 18:36 (retrieved 1 year ago)

TAF ENDU 221700Z 2218/2318 VRB03KT CAVOK PROB30 TEMPO 2220/2306 2500 -SN VV012 BECMG 2302/2305 22010KT TEMPO 2303/2315 21015G25KT TEMPO 2309/2318 1200 SHSN VV008 TEMPO 2309/2318 SCT040CB